»·PEaware :: N8068C KCMA-KSBD

N8068C :: KCMA-KSBD

FLIGHT INFORMATION

Flight Status: Arrived
Operator: Privately registered:
United States
More flights under this callsign
Pilot: Ryan B. (29)
Aircraft: Unknown
(LNC4)
More flights by this aircraft type
Origin: KCMA Camarillo
United States
Destination: KSBD San Bernardino Intl
United States
More flights between these airports :: More routes between these airports
Route: VTU044R GINNA V326 VNY V186 PDZ
File this flight plan on PilotEdge
Remarks: charts / V /
Altitude:
(Current/Filed)
50ft
Speed:
(Current/Filed)
215kts
Departed: 07-Oct-11 06:33 PM
Arrived: 07-Oct-11 07:35 PM
Distance/Time
Traveled:
259nm/1:02
Distance/Time
To Go:
Arrived

Flight Plot

Page will automatically refresh every two minutes.


Map Options




Map Legend


Flown Route
Filed Route
Departure Airport
Arrival Airport
Navaid (VOR, NDB)
Fix

Horizontal Profiles

Position Reports

Time Latitude Longitude Heading Altitude Ground
Speed
07-Oct-11 17:18 34.210922 -119.097916 180 79ft 0kts
07-Oct-11 17:19 34.210921 -119.097916 180 79ft 0kts
07-Oct-11 17:20 34.210921 -119.097916 180 79ft 0kts
07-Oct-11 17:21 34.210921 -119.097916 180 79ft 0kts
07-Oct-11 17:22 34.210920 -119.097916 180 79ft 0kts
07-Oct-11 17:23 34.210920 -119.097916 179 79ft 0kts
07-Oct-11 17:24 34.210919 -119.097916 179 79ft 0kts
07-Oct-11 17:25 34.210919 -119.097916 179 79ft 0kts
07-Oct-11 17:26 34.210918 -119.097916 179 79ft 0kts
07-Oct-11 17:27 34.210918 -119.097916 179 79ft 0kts
07-Oct-11 17:28 34.210918 -119.097916 179 79ft 0kts
07-Oct-11 17:29 34.210917 -119.097916 179 79ft 0kts
07-Oct-11 17:30 34.210917 -119.097916 179 79ft 0kts
07-Oct-11 17:31 34.210916 -119.097916 179 79ft 0kts
07-Oct-11 17:32 34.210916 -119.097916 179 79ft 0kts
07-Oct-11 17:33 34.210915 -119.097916 179 79ft 0kts
07-Oct-11 17:34 34.210914 -119.097916 179 79ft 0kts
07-Oct-11 17:35 34.210914 -119.097916 179 79ft 0kts
07-Oct-11 17:36 34.210913 -119.097916 179 79ft 0kts
07-Oct-11 17:37 34.210913 -119.097916 179 79ft 0kts
07-Oct-11 17:38 34.210912 -119.097916 179 79ft 0kts
07-Oct-11 17:39 34.210912 -119.097916 179 79ft 0kts
07-Oct-11 17:40 34.210911 -119.097916 179 79ft 0kts
07-Oct-11 17:41 34.210911 -119.097915 179 79ft 0kts
07-Oct-11 17:42 34.210910 -119.097915 179 79ft 0kts
07-Oct-11 17:43 34.210910 -119.097915 179 79ft 0kts
07-Oct-11 17:44 34.210909 -119.097915 179 79ft 0kts
07-Oct-11 17:46 34.210908 -119.097915 179 79ft 0kts
07-Oct-11 17:47 34.210908 -119.097915 179 79ft 0kts
07-Oct-11 17:48 34.210907 -119.097915 179 79ft 0kts
07-Oct-11 17:49 34.210907 -119.097915 179 79ft 0kts
07-Oct-11 17:50 34.210906 -119.097915 179 79ft 0kts
07-Oct-11 17:51 34.210906 -119.097915 179 79ft 0kts
07-Oct-11 17:52 34.210905 -119.097915 179 79ft 0kts
07-Oct-11 17:53 34.210904 -119.097915 179 79ft 0kts
07-Oct-11 17:54 34.210904 -119.097915 179 79ft 0kts
07-Oct-11 17:55 34.210903 -119.097915 178 79ft 0kts
07-Oct-11 17:56 34.210903 -119.097915 178 79ft 0kts
07-Oct-11 17:57 34.210902 -119.097915 178 79ft 0kts
07-Oct-11 17:58 34.210902 -119.097915 178 79ft 0kts
07-Oct-11 17:59 34.210901 -119.097915 178 79ft 0kts
07-Oct-11 18:00 34.210901 -119.097915 178 79ft 0kts
07-Oct-11 18:01 34.210900 -119.097915 178 79ft 0kts
07-Oct-11 18:02 34.210900 -119.097915 178 79ft 0kts
07-Oct-11 18:03 34.210899 -119.097915 178 79ft 0kts
07-Oct-11 18:04 34.210899 -119.097915 178 79ft 0kts
07-Oct-11 18:05 34.210898 -119.097915 178 79ft 0kts
07-Oct-11 18:06 34.210898 -119.097915 178 79ft 0kts
07-Oct-11 18:07 34.210897 -119.097915 178 79ft 0kts
07-Oct-11 18:08 34.210897 -119.097915 178 79ft 0kts
07-Oct-11 18:09 34.210896 -119.097915 178 79ft 0kts
07-Oct-11 18:10 34.210895 -119.097915 178 79ft 0kts
07-Oct-11 18:11 34.210895 -119.097915 178 79ft 0kts
07-Oct-11 18:12 34.210894 -119.097915 178 79ft 0kts
07-Oct-11 18:13 34.210894 -119.097915 178 79ft 0kts
07-Oct-11 18:14 34.210893 -119.097915 178 79ft 0kts
07-Oct-11 18:15 34.210893 -119.097915 178 79ft 0kts
07-Oct-11 18:16 34.210892 -119.097915 178 79ft 0kts
07-Oct-11 18:17 34.210892 -119.097915 178 79ft 0kts
07-Oct-11 18:18 34.210891 -119.097915 178 79ft 0kts
07-Oct-11 18:19 34.210891 -119.097915 178 79ft 0kts
07-Oct-11 18:20 34.210890 -119.097915 178 79ft 0kts
07-Oct-11 18:21 34.210890 -119.097915 178 79ft 0kts
07-Oct-11 18:22 34.210889 -119.097915 178 79ft 0kts
07-Oct-11 18:23 34.210889 -119.097915 178 79ft 0kts
07-Oct-11 18:24 34.210888 -119.097915 178 79ft 0kts
07-Oct-11 18:25 34.210762 -119.097870 59 79ft 0kts
07-Oct-11 18:26 34.210762 -119.097870 59 79ft 0kts
07-Oct-11 18:27 34.210765 -119.097864 59 79ft 1kts
07-Oct-11 18:28 34.211373 -119.090967 90 79ft 14kts
07-Oct-11 18:29 34.211379 -119.084826 64 79ft 13kts
07-Oct-11 18:30 34.213753 -119.096882 265 92ft 117kts
07-Oct-11 18:31 34.203511 -119.134416 191 1284ft 157kts
07-Oct-11 18:32 34.163415 -119.101857 137 2349ft 186kts
07-Oct-11 18:33 34.128103 -119.063681 128 3756ft 152kts
07-Oct-11 18:35 34.148289 -118.985097 59 5018ft 172kts
07-Oct-11 18:36 34.180890 -118.923338 66 5003ft 195kts
07-Oct-11 18:37 34.202915 -118.874383 57 4999ft 203kts
07-Oct-11 18:38 34.228464 -118.812925 84 4997ft 211kts
07-Oct-11 18:39 34.222697 -118.740188 91 5002ft 225kts
07-Oct-11 18:40 34.223680 -118.663216 93 4998ft 229kts
07-Oct-11 18:41 34.223408 -118.587509 90 4994ft 218kts
07-Oct-11 18:42 34.223347 -118.515730 85 4987ft 209kts
07-Oct-11 18:43 34.211403 -118.446474 108 4989ft 216kts
07-Oct-11 18:44 34.188794 -118.380652 108 4995ft 212kts
07-Oct-11 18:45 34.170312 -118.312583 114 4997ft 214kts
07-Oct-11 18:46 34.148964 -118.243459 112 4996ft 223kts
07-Oct-11 18:47 34.127785 -118.172784 113 4999ft 223kts
07-Oct-11 18:48 34.106186 -118.102580 112 5011ft 223kts
07-Oct-11 18:49 34.082242 -118.032579 107 5013ft 225kts
07-Oct-11 18:50 34.061411 -117.960733 106 5000ft 228kts
07-Oct-11 18:51 34.040145 -117.888240 106 5002ft 229kts
07-Oct-11 18:52 34.018188 -117.816739 106 5003ft 226kts
07-Oct-11 18:53 33.996374 -117.745721 111 4998ft 226kts
07-Oct-11 18:54 33.970130 -117.676863 107 4999ft 225kts
07-Oct-11 18:55 33.946344 -117.609029 108 4987ft 208kts
07-Oct-11 18:56 33.928331 -117.546190 76 4989ft 185kts
07-Oct-11 18:57 33.963484 -117.507892 26 4420ft 179kts
07-Oct-11 18:59 34.034911 -117.449407 71 3736ft 147kts
07-Oct-11 19:00 34.042380 -117.403814 67 3220ft 129kts
07-Oct-11 19:01 34.052321 -117.365848 62 3202ft 115kts
07-Oct-11 19:02 34.056109 -117.352771 62 3078ft 125kts
07-Oct-11 19:06 34.046463 -117.272804 286 4408ft 219kts
07-Oct-11 19:32 34.099880 -117.245651 270 1160ft 0kts
07-Oct-11 19:39 37.714168 -122.215315 103 9ft 0kts

Navigation Log

Ident Type
Flight plan parsing failed, navigation log unavailable